createdAt,value
2019-03-28T11:40:09.439Z,41.80
2019-03-28T11:45:11.089Z,44.00
2019-03-28T11:50:12.398Z,43.90
2019-03-28T11:55:13.590Z,44.70
2019-03-28T12:00:17.223Z,46.30
2019-03-28T12:05:18.352Z,44.70
2019-03-28T12:10:19.543Z,45.30
2019-03-28T12:15:20.755Z,45.20
2019-03-28T12:20:21.858Z,46.10
2019-03-28T12:25:22.967Z,45.20
2019-03-28T12:30:24.161Z,44.40
2019-03-28T12:35:25.255Z,45.30
2019-03-28T12:40:26.389Z,46.30
2019-03-28T12:45:27.498Z,46.00
2019-03-28T12:50:28.610Z,46.90
2019-03-28T12:55:29.700Z,47.00
2019-03-28T13:00:33.349Z,47.60
2019-03-28T13:05:34.940Z,46.90
2019-03-28T13:10:36.251Z,46.20
2019-03-28T13:15:37.355Z,45.90
2019-03-28T13:20:38.460Z,45.00
2019-03-28T13:25:39.569Z,44.20
2019-03-28T13:30:40.672Z,42.80
2019-03-28T13:35:41.760Z,43.00
2019-03-28T13:40:42.888Z,42.50
2019-03-28T13:45:43.976Z,41.90
2019-03-28T13:50:45.952Z,41.30
2019-03-28T13:55:47.095Z,41.90
2019-03-28T14:00:48.224Z,39.50
2019-03-28T14:05:49.329Z,36.70
2019-03-28T14:10:50.417Z,37.70
2019-03-28T14:15:51.541Z,39.70
2019-03-28T14:20:52.646Z,41.20
2019-03-28T14:25:53.732Z,43.00
2019-03-28T14:30:54.821Z,42.50
2019-03-28T14:35:55.926Z,45.20
2019-03-28T14:40:58.388Z,49.00
2019-03-28T14:45:59.784Z,52.20
2019-03-28T14:51:00.957Z,52.30
2019-03-28T14:56:02.548Z,47.90
2019-03-28T15:01:03.690Z,47.80
2019-03-28T15:06:04.959Z,45.00
2019-03-28T15:11:06.167Z,39.30
2019-03-28T15:16:07.470Z,36.40
2019-03-28T15:21:08.561Z,38.00
2019-03-28T15:26:09.660Z,35.60
2019-03-28T15:31:10.870Z,36.70
2019-03-28T15:36:11.998Z,40.70
2019-03-28T15:41:13.217Z,45.20
2019-03-28T15:46:14.335Z,48.60
2019-03-28T15:51:15.405Z,50.30
2019-03-28T15:56:16.507Z,50.80
2019-03-28T16:01:17.627Z,52.00
2019-03-28T16:06:18.712Z,52.30
2019-03-28T16:11:19.832Z,53.90
2019-03-28T16:16:20.932Z,55.50
2019-03-28T16:21:22.044Z,57.70
2019-03-28T16:26:23.143Z,58.30
2019-03-28T16:31:24.242Z,60.10
2019-03-28T16:36:25.354Z,62.10
2019-03-28T16:41:26.584Z,64.80
2019-03-28T16:46:27.775Z,67.60
2019-03-28T16:51:28.876Z,70.60
2019-03-28T16:56:30.203Z,74.70
2019-03-28T17:01:31.311Z,78.90
2019-03-28T17:06:32.535Z,83.50
2019-03-28T17:11:34.506Z,90.30
2019-03-28T17:16:35.611Z,93.80
2019-03-28T17:21:38.136Z,97.40
2019-03-28T17:26:39.355Z,99.90
2019-03-28T17:31:40.466Z,99.90
2019-03-28T17:36:41.559Z,99.90
2019-03-28T17:41:42.684Z,99.90
2019-03-28T17:46:44.724Z,99.90
2019-03-28T17:51:46.254Z,99.90
2019-03-28T17:56:47.793Z,99.90
2019-03-28T18:01:49.187Z,99.90
2019-03-28T18:06:50.393Z,99.90
2019-03-28T18:11:51.688Z,99.90
2019-03-28T18:16:52.810Z,99.90
2019-03-28T18:22:03.202Z,99.90
2019-03-28T18:26:57.041Z,99.90
2019-03-28T18:31:58.360Z,99.90
2019-03-28T18:36:59.535Z,99.90
2019-03-28T18:42:00.664Z,99.90
2019-03-28T18:47:01.934Z,99.90
2019-03-28T18:52:05.925Z,99.90
2019-03-28T18:57:06.810Z,99.90
2019-03-28T19:02:07.922Z,99.90
2019-03-28T19:07:09.823Z,99.90
2019-03-28T19:12:11.156Z,99.90
2019-03-28T19:17:12.396Z,99.90
2019-03-28T19:22:13.619Z,99.90
2019-03-28T19:27:14.750Z,99.90
2019-03-28T19:32:15.852Z,99.90
2019-03-28T19:37:17.609Z,99.90
2019-03-28T19:42:18.852Z,99.90
2019-03-28T19:47:20.088Z,99.90
2019-03-28T19:52:21.190Z,99.90
2019-03-28T19:57:22.827Z,99.90
2019-03-28T20:02:24.513Z,99.90
2019-03-28T20:07:25.652Z,99.90
2019-03-28T20:12:26.748Z,99.90
2019-03-28T20:17:27.903Z,99.90
2019-03-28T20:22:29.026Z,99.90
2019-03-28T20:27:30.133Z,99.90
2019-03-28T20:32:31.245Z,99.90
2019-03-28T20:37:32.378Z,99.90
2019-03-28T20:42:34.256Z,99.90
2019-03-28T20:47:36.185Z,99.90
2019-03-28T20:52:37.279Z,99.90
2019-03-28T20:57:40.467Z,99.90
2019-03-28T21:02:41.521Z,99.90
2019-03-28T21:07:42.652Z,99.90
2019-03-28T21:12:43.835Z,99.90
2019-03-28T21:17:45.155Z,99.90
2019-03-28T21:22:46.769Z,99.90
2019-03-28T21:27:48.109Z,99.90
2019-03-28T21:32:55.204Z,99.90
2019-03-28T21:37:52.346Z,99.90
2019-03-28T21:42:53.491Z,99.90
2019-03-28T21:47:54.594Z,99.90
2019-03-28T21:52:55.683Z,99.90
2019-03-28T21:57:56.823Z,99.90
2019-03-28T22:02:57.927Z,99.90
2019-03-28T22:07:59.052Z,99.90
2019-03-28T22:13:00.165Z,99.90
2019-03-28T22:18:01.293Z,99.90
2019-03-28T22:23:02.494Z,99.90
2019-03-28T22:28:03.804Z,99.90
2019-03-28T22:33:04.929Z,99.90
2019-03-28T22:38:06.130Z,99.90
2019-03-28T22:43:07.369Z,99.90
2019-03-28T22:48:11.173Z,99.90
2019-03-28T22:53:11.651Z,99.90
2019-03-28T22:58:12.907Z,99.90
2019-03-28T23:03:14.900Z,99.90
2019-03-28T23:08:16.195Z,99.90
2019-03-28T23:13:17.304Z,99.90
2019-03-28T23:18:18.411Z,99.90
2019-03-28T23:23:19.508Z,99.90
2019-03-28T23:28:20.611Z,99.90
2019-03-28T23:33:21.700Z,99.90
2019-03-28T23:38:22.898Z,99.90
2019-03-28T23:43:24.045Z,99.90
2019-03-28T23:48:25.226Z,99.90
2019-03-28T23:53:26.330Z,99.90
2019-03-28T23:58:27.474Z,99.90
